createdAt,value
2018-06-09T00:02:15.814Z,56.90
2018-06-09T00:04:45.264Z,57.00
2018-06-09T00:07:14.662Z,57.20
2018-06-09T00:09:44.018Z,57.30
2018-06-09T00:12:13.207Z,57.80
2018-06-09T00:14:42.556Z,57.80
2018-06-09T00:17:12.009Z,58.40
2018-06-09T00:19:41.411Z,58.70
2018-06-09T00:22:10.833Z,59.30
2018-06-09T00:24:40.295Z,59.00
2018-06-09T00:27:09.652Z,59.20
2018-06-09T00:29:39.058Z,59.70
2018-06-09T00:32:08.488Z,60.20
2018-06-09T00:34:37.908Z,60.90
2018-06-09T00:37:07.490Z,62.10
2018-06-09T00:39:36.823Z,62.80
2018-06-09T00:42:06.565Z,63.40
2018-06-09T00:44:36.022Z,64.40
2018-06-09T00:47:05.407Z,65.00
2018-06-09T00:49:34.795Z,66.10
2018-06-09T00:52:04.248Z,66.90
2018-06-09T00:54:33.766Z,67.70
2018-06-09T00:57:03.212Z,69.00
2018-06-09T00:59:32.603Z,69.70
2018-06-09T01:02:02.235Z,70.50
2018-06-09T01:04:31.469Z,71.70
2018-06-09T01:07:01.129Z,73.70
2018-06-09T01:09:30.988Z,75.10
2018-06-09T01:12:00.646Z,77.10
2018-06-09T01:14:30.186Z,78.90
2018-06-09T01:16:59.873Z,80.60
2018-06-09T01:19:29.471Z,82.50
2018-06-09T01:21:58.881Z,84.60
2018-06-09T01:24:28.470Z,87.80
2018-06-09T01:26:57.905Z,90.00
2018-06-09T01:29:27.616Z,91.20
2018-06-09T01:31:57.405Z,91.70
2018-06-09T01:34:27.234Z,92.30
2018-06-09T01:36:56.681Z,94.00
2018-06-09T01:39:26.293Z,95.00
2018-06-09T01:41:55.981Z,95.80
2018-06-09T01:44:25.553Z,96.70
2018-06-09T01:46:55.314Z,97.40
2018-06-09T01:49:25.073Z,98.00
2018-06-09T01:51:54.487Z,98.10
2018-06-09T01:54:24.219Z,99.50
2018-06-09T01:56:53.707Z,99.80
2018-06-09T01:59:23.088Z,99.90
2018-06-09T02:01:52.471Z,99.90
2018-06-09T02:04:21.960Z,99.90
2018-06-09T02:06:51.356Z,99.90
2018-06-09T02:09:20.766Z,99.90
2018-06-09T02:11:50.509Z,99.90
2018-06-09T02:14:19.870Z,99.90
2018-06-09T02:16:49.247Z,99.90
2018-06-09T02:19:18.657Z,99.90
2018-06-09T02:21:47.814Z,99.90
2018-06-09T02:24:17.185Z,99.90
2018-06-09T02:26:46.643Z,99.90
2018-06-09T02:29:16.055Z,99.90
2018-06-09T02:31:45.477Z,99.90
2018-06-09T02:34:14.857Z,99.90
2018-06-09T02:36:44.197Z,99.90
2018-06-09T02:39:13.564Z,99.90
2018-06-09T02:41:43.137Z,99.90
2018-06-09T02:44:12.492Z,99.90
2018-06-09T02:46:42.055Z,99.90
2018-06-09T02:51:40.493Z,99.90
2018-06-09T02:54:09.884Z,99.90
2018-06-09T02:56:39.404Z,99.90
2018-06-09T02:59:08.888Z,99.90
2018-06-09T03:01:38.245Z,99.90
2018-06-09T03:04:07.676Z,99.90
2018-06-09T03:06:37.138Z,99.90
2018-06-09T03:09:07.835Z,99.90
2018-06-09T03:11:37.262Z,99.90
2018-06-09T03:14:06.607Z,99.90
2018-06-09T03:16:35.965Z,99.90
2018-06-09T03:19:05.710Z,99.90
2018-06-09T03:21:35.363Z,99.90
2018-06-09T03:24:04.800Z,99.90
2018-06-09T03:26:34.146Z,99.90
2018-06-09T03:29:03.512Z,99.90
2018-06-09T03:31:32.910Z,99.90
2018-06-09T03:34:03.072Z,99.90
2018-06-09T03:36:32.430Z,99.90
2018-06-09T03:39:01.969Z,99.90
2018-06-09T03:46:29.396Z,99.90
2018-06-09T03:48:58.768Z,99.90
2018-06-09T03:51:28.117Z,99.90
2018-06-09T03:53:57.536Z,99.90
2018-06-09T03:56:26.875Z,99.90
2018-06-09T03:58:56.271Z,99.90
2018-06-09T04:03:54.638Z,99.90
2018-06-09T04:06:23.979Z,99.90
2018-06-09T04:08:53.433Z,99.90
2018-06-09T04:11:23.051Z,99.90
2018-06-09T04:13:52.423Z,99.90
2018-06-09T04:16:21.836Z,99.90
2018-06-09T04:18:51.217Z,99.90
2018-06-09T04:21:20.716Z,99.90
2018-06-09T04:23:50.101Z,99.90
2018-06-09T04:26:19.403Z,99.90
2018-06-09T04:28:48.777Z,99.90
2018-06-09T04:31:18.129Z,99.90
2018-06-09T04:36:18.445Z,99.90
2018-06-09T04:38:47.868Z,99.90
2018-06-09T04:43:46.288Z,99.90
2018-06-09T04:46:15.701Z,99.90
2018-06-09T04:48:45.096Z,99.90
2018-06-09T04:51:14.446Z,99.90
2018-06-09T04:53:43.869Z,99.90
2018-06-09T04:56:13.172Z,99.90
2018-06-09T04:58:42.580Z,99.90
2018-06-09T05:01:11.969Z,99.90
2018-06-09T05:06:10.419Z,99.90
2018-06-09T05:08:39.771Z,99.90
2018-06-09T05:13:38.178Z,99.90
2018-06-09T05:16:07.537Z,99.90
2018-06-09T05:18:36.912Z,99.90
2018-06-09T05:21:06.332Z,99.90
2018-06-09T05:23:35.749Z,99.90
2018-06-09T05:26:05.456Z,99.90
2018-06-09T05:28:34.861Z,99.90
2018-06-09T05:31:04.322Z,99.90
2018-06-09T05:33:33.686Z,99.90
2018-06-09T05:36:03.056Z,99.90
2018-06-09T05:38:32.442Z,99.90
2018-06-09T05:41:01.985Z,99.90
2018-06-09T05:43:31.370Z,97.80
2018-06-09T05:46:00.821Z,94.60
2018-06-09T05:48:30.157Z,90.90
2018-06-09T05:50:59.545Z,88.80
2018-06-09T05:53:28.858Z,84.60
2018-06-09T05:55:58.549Z,81.10
2018-06-09T05:58:27.977Z,82.80
2018-06-09T06:00:57.321Z,76.70
2018-06-09T06:03:26.778Z,75.90
2018-06-09T06:05:56.149Z,74.90
2018-06-09T06:08:25.622Z,72.60
2018-06-09T06:10:55.249Z,71.80
2018-06-09T06:13:24.638Z,71.50
2018-06-09T06:15:53.989Z,69.90
2018-06-09T06:18:23.354Z,70.00
2018-06-09T06:20:52.772Z,68.90
2018-06-09T06:23:21.872Z,67.90
2018-06-09T06:25:51.250Z,68.70
2018-06-09T06:28:20.627Z,69.10
2018-06-09T06:30:50.144Z,67.20
2018-06-09T06:33:19.492Z,65.60
2018-06-09T06:35:48.859Z,62.30
2018-06-09T06:38:18.245Z,60.60
2018-06-09T06:40:47.662Z,61.60
2018-06-09T06:43:17.099Z,62.00
2018-06-09T06:45:46.464Z,58.90
2018-06-09T06:48:16.668Z,58.20
2018-06-09T06:50:46.013Z,57.60
2018-06-09T06:53:15.714Z,56.40
2018-06-09T06:55:45.133Z,56.00
2018-06-09T06:58:14.580Z,54.70
2018-06-09T07:00:43.927Z,53.60
2018-06-09T07:03:13.298Z,52.20
2018-06-09T07:05:42.615Z,51.60
2018-06-09T07:08:12.020Z,51.90
2018-06-09T07:10:41.373Z,49.40
2018-06-09T07:13:11.114Z,49.00
2018-06-09T07:15:40.167Z,50.00
2018-06-09T07:18:09.813Z,47.00
2018-06-09T07:20:39.269Z,47.10
2018-06-09T07:23:08.785Z,46.00
2018-06-09T07:25:38.245Z,46.00
2018-06-09T07:28:07.674Z,45.10
2018-06-09T07:30:37.104Z,45.30
2018-06-09T07:33:06.632Z,45.30
2018-06-09T07:35:35.745Z,45.60
2018-06-09T07:38:05.464Z,45.70
2018-06-09T07:40:34.776Z,45.00
2018-06-09T07:43:04.243Z,43.40
2018-06-09T07:45:33.579Z,42.50
2018-06-09T07:48:02.930Z,42.30
2018-06-09T07:50:32.549Z,42.70
2018-06-09T07:53:01.939Z,42.50
2018-06-09T07:55:31.353Z,41.90
2018-06-09T07:58:00.744Z,42.60
2018-06-09T08:00:30.060Z,41.10
2018-06-09T08:02:59.392Z,41.70
2018-06-09T08:05:29.148Z,40.90
2018-06-09T08:10:27.779Z,40.90
2018-06-09T08:12:57.164Z,39.70
2018-06-09T08:15:26.538Z,39.70
2018-06-09T08:17:56.398Z,39.40
2018-06-09T08:20:25.854Z,38.10
2018-06-09T08:22:55.320Z,37.70
2018-06-09T08:25:24.700Z,38.70
2018-06-09T08:27:54.301Z,39.40
2018-06-09T08:30:23.757Z,39.30
2018-06-09T08:32:53.129Z,39.60
2018-06-09T08:35:22.799Z,38.90
2018-06-09T08:37:52.341Z,39.10
2018-06-09T08:40:21.761Z,37.20
2018-06-09T08:42:51.162Z,36.60
2018-06-09T08:45:20.582Z,37.00
2018-06-09T08:47:50.122Z,37.50
2018-06-09T08:50:19.784Z,37.20
2018-06-09T08:52:49.209Z,35.20
2018-06-09T08:55:18.546Z,35.70
2018-06-09T09:00:17.058Z,35.30
2018-06-09T09:02:46.156Z,35.20
2018-06-09T09:05:16.205Z,33.90
2018-06-09T09:07:45.805Z,34.80
2018-06-09T09:10:15.931Z,35.50
2018-06-09T09:12:45.282Z,34.60
2018-06-09T09:15:14.985Z,33.30
2018-06-09T09:17:44.651Z,33.80
2018-06-09T09:20:14.071Z,32.90
2018-06-09T09:22:43.534Z,33.60
2018-06-09T09:25:13.026Z,33.00
2018-06-09T09:27:42.564Z,31.80
2018-06-09T09:30:12.283Z,31.70
2018-06-09T09:32:41.663Z,31.80
2018-06-09T09:35:11.138Z,32.20
2018-06-09T09:37:40.819Z,31.10
2018-06-09T09:40:11.053Z,31.70
2018-06-09T09:42:40.452Z,31.20
2018-06-09T09:45:09.900Z,31.70
2018-06-09T09:47:39.326Z,30.90
2018-06-09T09:50:08.741Z,30.20
2018-06-09T09:52:38.152Z,31.50
2018-06-09T09:55:07.741Z,30.00
2018-06-09T09:57:48.639Z,30.40
2018-06-09T10:00:22.828Z,30.40
2018-06-09T10:02:52.273Z,30.00
2018-06-09T10:05:22.004Z,30.00
2018-06-09T10:07:51.563Z,28.80
2018-06-09T10:10:21.098Z,28.30
2018-06-09T10:12:50.546Z,28.70
2018-06-09T10:15:20.348Z,28.50
2018-06-09T10:17:49.797Z,29.50
2018-06-09T10:20:19.200Z,29.70
2018-06-09T10:22:48.597Z,28.70
2018-06-09T10:25:18.010Z,28.80
2018-06-09T10:27:47.911Z,28.80
2018-06-09T10:30:17.363Z,28.30
2018-06-09T10:32:46.927Z,28.60
2018-06-09T10:35:16.499Z,28.80
2018-06-09T10:37:45.931Z,29.00
2018-06-09T10:40:15.558Z,28.70
2018-06-09T10:42:44.996Z,27.40
2018-06-09T10:45:15.189Z,28.50
2018-06-09T10:47:45.084Z,27.30
2018-06-09T10:50:14.564Z,27.60
2018-06-09T10:52:44.504Z,27.60
2018-06-09T10:55:14.275Z,27.30
2018-06-09T10:57:43.730Z,27.10
2018-06-09T11:00:13.431Z,27.00
2018-06-09T11:02:44.517Z,27.60
2018-06-09T11:05:13.890Z,28.00
2018-06-09T11:07:43.032Z,27.40
2018-06-09T11:10:12.433Z,27.10
2018-06-09T11:15:11.606Z,27.70
2018-06-09T11:17:40.986Z,27.30
2018-06-09T11:20:10.479Z,27.50
2018-06-09T11:22:39.811Z,27.20
2018-06-09T11:25:09.259Z,26.60
2018-06-09T11:27:38.607Z,27.10
2018-06-09T11:30:08.067Z,27.50
2018-06-09T11:32:37.393Z,27.50
2018-06-09T11:35:07.577Z,27.40
2018-06-09T11:37:37.015Z,27.20
2018-06-09T11:40:06.456Z,27.20
2018-06-09T11:42:35.853Z,27.10
2018-06-09T11:45:05.878Z,26.50
2018-06-09T11:47:35.283Z,26.60
2018-06-09T11:50:05.050Z,26.60
2018-06-09T11:52:34.341Z,26.90
2018-06-09T11:55:04.037Z,27.00
2018-06-09T11:57:33.453Z,27.40
2018-06-09T12:00:02.889Z,27.90
2018-06-09T12:02:32.230Z,27.70
2018-06-09T12:05:01.340Z,27.30
2018-06-09T12:07:30.773Z,27.20
2018-06-09T12:10:00.211Z,27.70
2018-06-09T12:12:29.553Z,28.00
2018-06-09T12:14:58.966Z,27.30
2018-06-09T12:17:28.440Z,27.50
2018-06-09T12:19:57.848Z,27.70
2018-06-09T12:22:27.365Z,27.20
2018-06-09T12:24:56.792Z,26.30
2018-06-09T12:27:26.305Z,26.70
2018-06-09T12:29:55.665Z,25.40
2018-06-09T12:32:25.023Z,25.40
2018-06-09T12:34:54.338Z,25.40
2018-06-09T12:37:23.761Z,25.40
2018-06-09T12:39:53.159Z,25.80
2018-06-09T12:42:22.542Z,26.30
2018-06-09T12:44:51.972Z,26.40
2018-06-09T12:47:21.625Z,26.70
2018-06-09T12:49:51.010Z,26.10
2018-06-09T12:52:20.452Z,26.30
2018-06-09T12:54:49.967Z,25.90
2018-06-09T12:57:19.561Z,25.90
2018-06-09T12:59:48.880Z,27.00
2018-06-09T13:02:18.292Z,28.80
2018-06-09T13:04:47.629Z,30.30
2018-06-09T13:09:46.170Z,30.90
2018-06-09T13:12:15.541Z,29.80
2018-06-09T13:14:45.267Z,27.90
2018-06-09T13:17:14.413Z,27.60
2018-06-09T13:19:43.762Z,27.60
2018-06-09T13:22:13.147Z,27.10
2018-06-09T13:24:42.484Z,28.30
2018-06-09T13:27:11.644Z,28.80
2018-06-09T13:29:40.986Z,30.00
2018-06-09T13:32:10.454Z,28.80
2018-06-09T13:34:39.826Z,28.50
2018-06-09T13:37:09.242Z,27.50
2018-06-09T13:39:38.617Z,27.10
2018-06-09T13:42:07.697Z,27.00
2018-06-09T13:44:37.020Z,27.00
2018-06-09T13:47:06.464Z,26.30
2018-06-09T13:49:36.184Z,26.40
2018-06-09T13:52:06.140Z,27.70
2018-06-09T13:54:35.495Z,28.50
2018-06-09T13:57:05.564Z,27.20
2018-06-09T13:59:34.967Z,27.00
2018-06-09T14:02:04.369Z,26.80
2018-06-09T14:04:33.555Z,27.20
2018-06-09T14:07:03.185Z,28.00
2018-06-09T14:09:33.614Z,29.90
2018-06-09T14:12:02.971Z,30.50
2018-06-09T14:14:32.397Z,30.30
2018-06-09T14:17:02.446Z,30.50
2018-06-09T14:19:31.879Z,29.60
2018-06-09T14:22:01.392Z,30.00
2018-06-09T14:26:59.692Z,30.70
2018-06-09T14:29:29.379Z,30.90
2018-06-09T14:34:27.857Z,32.20
2018-06-09T14:36:57.239Z,32.50
2018-06-09T14:39:26.693Z,32.90
2018-06-09T14:41:56.177Z,32.80
2018-06-09T14:44:25.685Z,32.80
2018-06-09T14:46:55.090Z,32.50
2018-06-09T14:49:24.535Z,34.00
2018-06-09T14:51:54.059Z,33.90
2018-06-09T14:54:23.617Z,33.60
2018-06-09T14:56:53.378Z,32.70
2018-06-09T14:59:22.898Z,33.40
2018-06-09T15:01:52.283Z,33.00
2018-06-09T15:04:21.891Z,33.50
2018-06-09T15:06:51.374Z,34.30
2018-06-09T15:09:20.764Z,34.00
2018-06-09T15:11:50.334Z,34.40
2018-06-09T15:14:19.852Z,34.60
2018-06-09T15:16:49.367Z,34.30
2018-06-09T15:19:19.004Z,34.40
2018-06-09T15:21:48.429Z,34.10
2018-06-09T15:24:17.961Z,34.70
2018-06-09T15:26:47.785Z,35.30
2018-06-09T15:29:17.822Z,35.70
2018-06-09T15:31:47.579Z,36.60
2018-06-09T15:34:17.101Z,35.60
2018-06-09T15:36:46.624Z,36.10
2018-06-09T15:39:16.094Z,36.40
2018-06-09T15:41:45.505Z,36.60
2018-06-09T15:44:14.906Z,36.80
2018-06-09T15:46:44.297Z,37.10
2018-06-09T15:49:13.669Z,36.30
2018-06-09T15:51:43.054Z,37.20
2018-06-09T15:54:12.522Z,36.90
2018-06-09T15:56:41.893Z,36.80
2018-06-09T15:59:11.307Z,36.90
2018-06-09T16:01:40.715Z,37.80
2018-06-09T16:04:10.155Z,38.40
2018-06-09T16:06:39.674Z,37.10
2018-06-09T16:09:09.860Z,37.30
2018-06-09T16:11:39.662Z,37.60
2018-06-09T16:14:09.729Z,37.50
2018-06-09T16:16:39.163Z,37.10
2018-06-09T16:19:09.040Z,38.00
2018-06-09T16:21:38.582Z,37.60
2018-06-09T16:24:08.090Z,38.90
2018-06-09T16:26:37.859Z,36.90
2018-06-09T16:29:08.843Z,38.10
2018-06-09T16:31:38.321Z,36.90
2018-06-09T16:34:08.160Z,37.30
2018-06-09T16:39:07.306Z,37.30
2018-06-09T16:41:36.654Z,38.10
2018-06-09T16:44:06.155Z,39.30
2018-06-09T16:46:35.566Z,39.80
2018-06-09T16:49:05.153Z,38.80
2018-06-09T16:51:34.571Z,38.10
2018-06-09T16:54:04.024Z,38.10
2018-06-09T16:56:33.531Z,37.90
2018-06-09T16:59:02.942Z,38.60
2018-06-09T17:01:32.336Z,38.40
2018-06-09T17:04:01.800Z,38.40
2018-06-09T17:06:31.759Z,39.10
2018-06-09T17:09:01.097Z,39.60
2018-06-09T17:11:30.159Z,39.70
2018-06-09T17:13:59.519Z,39.40
2018-06-09T17:16:28.689Z,39.80
2018-06-09T17:18:58.095Z,39.10
2018-06-09T17:21:27.571Z,38.90
2018-06-09T17:23:56.917Z,38.60
2018-06-09T17:26:26.289Z,40.40
2018-06-09T17:28:56.249Z,39.90
2018-06-09T17:31:25.601Z,39.80
2018-06-09T17:33:55.048Z,39.30
2018-06-09T17:36:24.430Z,39.50
2018-06-09T17:38:53.825Z,39.30
2018-06-09T17:41:23.199Z,38.80
2018-06-09T17:43:52.639Z,39.00
2018-06-09T17:46:22.285Z,39.10
2018-06-09T17:48:51.674Z,40.10
2018-06-09T17:51:21.048Z,40.40
2018-06-09T17:53:50.453Z,40.40
2018-06-09T17:56:19.885Z,40.00
2018-06-09T17:58:49.366Z,40.60
2018-06-09T18:01:19.088Z,40.50
2018-06-09T18:03:48.544Z,41.10
2018-06-09T18:06:18.188Z,46.80
2018-06-09T18:08:47.848Z,51.00
2018-06-09T18:11:17.207Z,53.10
2018-06-09T18:13:47.162Z,54.40
2018-06-09T18:16:17.052Z,55.50
2018-06-09T18:18:47.069Z,56.70
2018-06-09T18:21:16.882Z,57.60
2018-06-09T18:23:46.773Z,58.40
2018-06-09T18:26:16.498Z,59.00
2018-06-09T18:28:45.901Z,59.10
2018-06-09T18:31:15.334Z,59.60
2018-06-09T18:33:44.714Z,60.20
2018-06-09T18:36:14.317Z,61.00
2018-06-09T18:38:43.674Z,61.40
2018-06-09T18:41:13.024Z,63.00
2018-06-09T18:43:42.491Z,64.10
2018-06-09T18:46:11.983Z,65.60
2018-06-09T18:48:41.317Z,67.40
2018-06-09T18:51:10.657Z,69.70
2018-06-09T18:53:39.980Z,72.30
2018-06-09T18:56:09.420Z,74.70
2018-06-09T18:58:38.872Z,78.70
2018-06-09T19:01:08.712Z,82.10
2018-06-09T19:03:38.111Z,85.40
2018-06-09T19:06:07.486Z,90.00
2018-06-09T19:08:36.848Z,91.30
2018-06-09T19:11:06.286Z,93.60
2018-06-09T19:13:35.682Z,95.60
2018-06-09T19:16:05.650Z,98.00
2018-06-09T19:18:35.384Z,99.90
2018-06-09T19:21:05.116Z,99.90
2018-06-09T19:23:34.635Z,99.90
2018-06-09T19:26:04.316Z,99.90
2018-06-09T19:28:33.819Z,99.90
2018-06-09T19:31:03.202Z,99.90
2018-06-09T19:33:32.979Z,99.90
2018-06-09T19:36:02.338Z,99.90
2018-06-09T19:38:31.908Z,99.90
2018-06-09T19:41:01.534Z,99.90
2018-06-09T19:43:30.978Z,99.90
2018-06-09T19:46:00.410Z,99.90
2018-06-09T19:48:31.251Z,99.90
2018-06-09T19:51:00.702Z,99.90
2018-06-09T19:53:30.515Z,99.90
2018-06-09T19:55:59.921Z,99.90
2018-06-09T19:58:29.308Z,99.90
2018-06-09T20:00:59.078Z,99.90
2018-06-09T20:03:29.019Z,99.90
2018-06-09T20:05:58.471Z,99.90
2018-06-09T20:08:27.854Z,99.90
2018-06-09T20:10:57.241Z,99.90
2018-06-09T20:13:26.723Z,99.90
2018-06-09T20:15:56.144Z,99.90
2018-06-09T20:18:25.516Z,99.90
2018-06-09T20:23:24.499Z,99.90
2018-06-09T20:25:54.059Z,99.90
2018-06-09T20:28:24.207Z,99.90
2018-06-09T20:30:53.703Z,99.90
2018-06-09T20:33:23.716Z,99.90
2018-06-09T20:35:53.516Z,99.90
2018-06-09T20:38:23.026Z,99.90
2018-06-09T20:40:52.160Z,99.90
2018-06-09T20:43:21.633Z,99.90
2018-06-09T20:45:51.752Z,99.90
2018-06-09T20:48:21.317Z,99.90
2018-06-09T20:53:20.087Z,99.90
2018-06-09T20:55:49.294Z,99.90
2018-06-09T20:58:18.973Z,99.90
2018-06-09T21:00:48.394Z,99.90
2018-06-09T21:03:17.820Z,99.90
2018-06-09T21:05:47.310Z,99.90
2018-06-09T21:08:17.008Z,99.90
2018-06-09T21:10:46.454Z,99.90
2018-06-09T21:13:15.984Z,99.90
2018-06-09T21:18:14.581Z,99.90
2018-06-09T21:20:44.024Z,99.90
2018-06-09T21:23:13.266Z,99.90
2018-06-09T21:25:42.590Z,99.90
2018-06-09T21:28:12.231Z,99.90
2018-06-09T21:30:41.705Z,99.90
2018-06-09T21:34:25.687Z,99.90
2018-06-09T21:36:57.797Z,99.90
2018-06-09T21:39:33.449Z,99.90
2018-06-09T21:47:16.236Z,99.90
2018-06-09T21:49:46.066Z,99.90
2018-06-09T21:52:15.451Z,99.90
2018-06-09T21:54:45.423Z,99.90
2018-06-09T21:57:15.344Z,99.90
2018-06-09T21:59:44.792Z,99.90
2018-06-09T22:02:14.488Z,99.90
2018-06-09T22:04:43.617Z,99.90
2018-06-09T22:07:13.190Z,99.90
2018-06-09T22:09:42.638Z,99.90
2018-06-09T22:12:11.759Z,99.90
2018-06-09T22:14:41.638Z,99.90
2018-06-09T22:17:11.025Z,99.90
2018-06-09T22:19:40.493Z,99.90
2018-06-09T22:22:10.082Z,99.90
2018-06-09T22:24:40.334Z,99.90
2018-06-09T22:27:09.747Z,99.90
2018-06-09T22:29:39.461Z,99.90
2018-06-09T22:32:10.157Z,99.90
2018-06-09T22:34:39.565Z,99.90
2018-06-09T22:37:08.964Z,99.90
2018-06-09T22:39:38.960Z,99.90
2018-06-09T22:42:08.348Z,99.90
2018-06-09T22:44:38.330Z,99.90
2018-06-09T22:47:08.042Z,99.90
2018-06-09T22:49:37.661Z,99.90
2018-06-09T22:52:08.185Z,99.90
2018-06-09T22:54:38.154Z,99.90
2018-06-09T22:57:08.045Z,99.90
2018-06-09T22:59:37.432Z,99.90
2018-06-09T23:02:06.827Z,99.90
2018-06-09T23:04:37.130Z,99.90
2018-06-09T23:07:06.840Z,99.90
2018-06-09T23:09:36.223Z,99.90
2018-06-09T23:12:05.899Z,99.90
2018-06-09T23:14:35.645Z,99.90
2018-06-09T23:17:05.037Z,99.90
2018-06-09T23:19:34.394Z,99.90
2018-06-09T23:22:03.851Z,99.90
2018-06-09T23:24:33.025Z,99.90
2018-06-09T23:27:02.423Z,99.90
2018-06-09T23:29:31.837Z,99.90
2018-06-09T23:32:01.208Z,99.90
2018-06-09T23:34:30.342Z,99.90
2018-06-09T23:36:59.738Z,99.90
2018-06-09T23:39:29.243Z,99.90
2018-06-09T23:41:58.620Z,99.90
2018-06-09T23:44:28.262Z,99.90
2018-06-09T23:46:57.635Z,99.90
2018-06-09T23:49:27.373Z,99.90
2018-06-09T23:51:56.691Z,99.90
2018-06-09T23:54:26.043Z,99.90
2018-06-09T23:56:55.389Z,99.90
2018-06-09T23:59:24.782Z,99.90
